Time;durP1;ratioP1;P1;durP2;ratioP2;P2;SDS_P1;SDS_P2;PMS_P1;PMS_P2;Temp;Humidity;BMP_temperature;BMP_pressure;BME280_temperature;BME280_humidity;BME280_pressure;Samples;Min_cycle;Max_cycle;Signal;HPM_P1;HPM_P2
2022/06/30 00:00:52;;;;;;;1.47;0.90;;;21.00;98.20;;;;;;4991530;28;20464;-77
2022/06/30 00:03:19;;;;;;;1.50;0.90;;;20.90;98.20;;;;;;4998513;28;21025;-77
2022/06/30 00:05:45;;;;;;;1.47;0.90;;;20.90;98.20;;;;;;4994696;28;20476;-76
2022/06/30 00:08:12;;;;;;;1.50;0.90;;;20.90;98.20;;;;;;4989736;28;20465;-77
2022/06/30 00:10:41;;;;;;;1.47;0.93;;;20.90;98.20;;;;;;4997325;28;20460;-77
2022/06/30 00:13:07;;;;;;;1.50;0.90;;;20.80;98.20;;;;;;4999059;28;20483;-77
2022/06/30 00:15:35;;;;;;;1.50;0.90;;;20.80;98.20;;;;;;4994479;28;20464;-77
2022/06/30 00:18:02;;;;;;;1.50;0.90;;;20.80;98.20;;;;;;5003275;28;20483;-76
2022/06/30 00:20:29;;;;;;;1.47;0.90;;;20.70;98.20;;;;;;5005180;28;20960;-76
2022/06/30 00:22:55;;;;;;;1.50;0.90;;;20.70;98.20;;;;;;4990508;28;20497;-76
2022/06/30 00:25:22;;;;;;;1.47;0.90;;;20.70;98.20;;;;;;4996774;28;20465;-76
2022/06/30 00:27:50;;;;;;;1.47;0.90;;;20.70;98.20;;;;;;4989748;28;20483;-76
2022/06/30 00:30:17;;;;;;;1.50;1.00;;;20.70;98.20;;;;;;4993153;28;20465;-77
2022/06/30 00:32:44;;;;;;;1.47;0.90;;;20.70;98.20;;;;;;4988525;28;20905;-75
2022/06/30 00:35:11;;;;;;;1.50;0.83;;;20.70;98.20;;;;;;5005081;28;20839;-76
2022/06/30 00:37:38;;;;;;;1.40;0.90;;;20.70;98.20;;;;;;5013027;28;21054;-77
2022/06/30 00:40:05;;;;;;;1.43;0.90;;;20.70;98.20;;;;;;4999229;28;20484;-77
2022/06/30 00:42:32;;;;;;;1.40;0.90;;;20.70;98.20;;;;;;4994374;28;20510;-76
2022/06/30 00:45:00;;;;;;;1.43;0.90;;;20.70;98.20;;;;;;5003949;28;20460;-76
2022/06/30 00:47:27;;;;;;;1.43;0.90;;;20.70;98.20;;;;;;4996182;28;20498;-76
2022/06/30 00:49:54;;;;;;;1.43;0.83;;;20.70;98.20;;;;;;4995501;28;20468;-75
2022/06/30 00:52:24;;;;;;;1.43;0.90;;;20.70;98.20;;;;;;4989294;28;20480;-76
2022/06/30 00:54:53;;;;;;;1.50;1.00;;;20.70;98.20;;;;;;4997908;28;20498;-76
2022/06/30 00:57:22;;;;;;;1.43;0.90;;;20.60;98.20;;;;;;5006717;28;20956;-76
2022/06/30 00:59:52;;;;;;;1.47;0.90;;;20.60;98.20;;;;;;4999820;28;20472;-76
2022/06/30 01:02:21;;;;;;;1.47;0.90;;;20.60;98.20;;;;;;4995151;28;20483;-76
2022/06/30 01:04:50;;;;;;;1.43;0.90;;;20.60;98.20;;;;;;4992249;28;20465;-77
2022/06/30 01:07:18;;;;;;;1.50;0.90;;;20.60;98.20;;;;;;4993440;28;20484;-76
2022/06/30 01:12:44;;;;;;;1.43;0.90;;;20.60;98.20;;;;;;4998079;28;21023;-76
2022/06/30 01:15:12;;;;;;;1.70;1.37;;;20.50;98.20;;;;;;4992158;28;20491;-77
2022/06/30 01:17:40;;;;;;;1.50;1.10;;;20.50;98.20;;;;;;4995885;28;20577;-77
2022/06/30 01:20:08;;;;;;;1.50;0.90;;;20.50;98.20;;;;;;4992524;28;20469;-77
2022/06/30 01:22:37;;;;;;;1.50;0.97;;;20.50;98.20;;;;;;4995422;28;20493;-76
2022/06/30 01:25:04;;;;;;;1.50;0.90;;;20.50;98.20;;;;;;4999152;28;20618;-76
2022/06/30 01:27:31;;;;;;;1.40;0.90;;;20.50;98.20;;;;;;5000938;28;20491;-77
2022/06/30 01:29:58;;;;;;;1.47;0.90;;;20.50;98.20;;;;;;5003358;28;20968;-76
2022/06/30 01:32:26;;;;;;;1.47;0.90;;;20.50;98.20;;;;;;5002617;28;20533;-76
2022/06/30 01:34:53;;;;;;;1.43;0.90;;;20.50;98.20;;;;;;5003487;28;20518;-77
2022/06/30 01:37:19;;;;;;;2.00;1.23;;;20.50;98.20;;;;;;5005699;28;20479;-76
2022/06/30 01:39:48;;;;;;;1.50;1.10;;;20.50;98.20;;;;;;5009718;28;20863;-76
2022/06/30 01:42:14;;;;;;;1.50;1.03;;;20.50;98.20;;;;;;5009176;28;20494;-77
2022/06/30 01:44:47;;;;;;;1.47;0.90;;;20.50;98.20;;;;;;5015554;28;20955;-78
2022/06/30 01:47:14;;;;;;;1.43;0.90;;;20.50;98.20;;;;;;4997688;28;20479;-76
2022/06/30 01:49:41;;;;;;;1.50;0.90;;;20.50;98.20;;;;;;5001012;28;20469;-77
2022/06/30 01:52:08;;;;;;;1.43;0.90;;;20.50;98.20;;;;;;4997035;28;20461;-76
2022/06/30 01:54:35;;;;;;;1.60;1.23;;;20.40;98.20;;;;;;4994418;28;20472;-76
2022/06/30 01:57:04;;;;;;;1.47;0.97;;;20.40;98.20;;;;;;4993897;28;20484;-77
2022/06/30 01:59:31;;;;;;;1.43;0.90;;;20.30;98.20;;;;;;4990812;28;20947;-77
2022/06/30 02:01:59;;;;;;;1.50;0.90;;;20.20;98.20;;;;;;4993336;28;20992;-76
2022/06/30 02:07:10;;;;;;;1.50;0.90;;;20.10;98.20;;;;;;5006331;28;21371;-76
2022/06/30 02:09:36;;;;;;;1.50;0.90;;;20.10;98.20;;;;;;5011672;28;20464;-77
2022/06/30 02:14:50;;;;;;;1.50;0.93;;;20.10;98.20;;;;;;4990724;28;20456;-76
2022/06/30 02:17:17;;;;;;;1.50;0.90;;;20.10;98.20;;;;;;4996641;28;21204;-76
2022/06/30 02:19:45;;;;;;;1.50;1.00;;;20.00;98.20;;;;;;5012811;28;20507;-77
2022/06/30 02:22:11;;;;;;;1.50;1.00;;;20.00;98.20;;;;;;5006134;28;20925;-76
2022/06/30 02:24:38;;;;;;;1.50;0.90;;;19.90;98.20;;;;;;4999021;28;20472;-77
2022/06/30 02:27:07;;;;;;;1.47;0.90;;;19.90;98.20;;;;;;4992908;28;20552;-77
2022/06/30 02:29:34;;;;;;;1.50;0.90;;;19.90;98.20;;;;;;5007650;28;20461;-78
2022/06/30 02:32:01;;;;;;;1.50;0.90;;;19.80;98.20;;;;;;5004275;28;20487;-79
2022/06/30 02:34:28;;;;;;;1.47;0.90;;;19.80;98.20;;;;;;5010430;28;20474;-79
2022/06/30 02:36:56;;;;;;;1.50;0.90;;;19.80;98.20;;;;;;4998761;28;20491;-79
2022/06/30 02:39:23;;;;;;;1.43;0.90;;;19.70;98.20;;;;;;5004984;28;20480;-79
2022/06/30 02:41:49;;;;;;;1.50;0.90;;;19.70;98.20;;;;;;4998964;28;20466;-79
2022/06/30 02:44:18;;;;;;;1.50;0.90;;;19.70;98.20;;;;;;4998041;28;20476;-79
2022/06/30 02:46:44;;;;;;;1.47;0.90;;;19.70;98.20;;;;;;5006609;28;20456;-79
2022/06/30 02:49:11;;;;;;;1.50;0.90;;;19.70;98.20;;;;;;4997498;28;20482;-80
2022/06/30 02:51:38;;;;;;;1.50;1.10;;;19.70;98.20;;;;;;4989173;28;20476;-80
2022/06/30 02:54:05;;;;;;;1.50;0.90;;;19.70;98.20;;;;;;5001313;28;21243;-80
2022/06/30 02:56:31;;;;;;;1.47;0.90;;;19.70;98.20;;;;;;5002346;28;20489;-79
2022/06/30 02:58:58;;;;;;;1.50;0.90;;;19.80;98.20;;;;;;5030604;28;20492;-79
2022/06/30 03:01:26;;;;;;;1.50;0.90;;;19.80;98.20;;;;;;5004055;28;20478;-79
2022/06/30 03:03:53;;;;;;;1.50;0.90;;;19.80;98.20;;;;;;5006927;28;20499;-79
2022/06/30 03:06:20;;;;;;;1.50;0.90;;;19.80;98.20;;;;;;5004107;28;20471;-79
2022/06/30 03:08:47;;;;;;;1.50;1.10;;;19.80;98.20;;;;;;5032362;23;20496;-77
2022/06/30 03:11:16;;;;;;;1.47;0.90;;;19.90;98.20;;;;;;5009620;28;20478;-78
2022/06/30 03:13:45;;;;;;;1.47;0.90;;;19.90;98.20;;;;;;5039209;28;20463;-77
2022/06/30 03:16:12;;;;;;;1.47;0.90;;;19.90;98.20;;;;;;5020665;28;20570;-75
2022/06/30 03:18:41;;;;;;;1.43;0.90;;;19.90;98.20;;;;;;5029197;28;20554;-77
2022/06/30 03:21:08;;;;;;;1.43;0.90;;;19.90;98.20;;;;;;4991325;28;20523;-78
2022/06/30 03:23:35;;;;;;;1.47;0.90;;;20.00;98.20;;;;;;5012312;28;20465;-78
2022/06/30 03:26:03;;;;;;;1.40;0.90;;;20.00;98.20;;;;;;4993384;28;20464;-77
2022/06/30 03:28:31;;;;;;;1.57;1.20;;;20.00;98.20;;;;;;4994766;28;20569;-77
2022/06/30 03:30:58;;;;;;;1.43;0.90;;;20.00;98.20;;;;;;4981793;28;20464;-78
2022/06/30 03:33:25;;;;;;;1.47;0.90;;;20.00;98.20;;;;;;4998331;28;20461;-77
2022/06/30 03:35:54;;;;;;;1.50;1.00;;;19.90;98.20;;;;;;4983061;28;20883;-78
2022/06/30 03:38:21;;;;;;;1.50;0.90;;;19.90;98.20;;;;;;4998264;28;20493;-77
2022/06/30 03:40:48;;;;;;;1.47;0.90;;;19.90;98.20;;;;;;4988363;28;20469;-77
2022/06/30 03:43:16;;;;;;;1.43;0.90;;;19.90;98.20;;;;;;5000791;28;20460;-76
2022/06/30 03:45:43;;;;;;;1.50;0.90;;;19.80;98.20;;;;;;5000594;28;20469;-76
2022/06/30 03:48:10;;;;;;;1.47;0.90;;;19.80;98.20;;;;;;5003155;28;20499;-76
2022/06/30 03:50:37;;;;;;;1.50;0.90;;;19.80;98.20;;;;;;4988459;28;20472;-76
2022/06/30 03:53:05;;;;;;;1.50;0.90;;;19.80;98.20;;;;;;4994971;28;20976;-77
2022/06/30 03:55:33;;;;;;;1.50;0.90;;;19.80;98.20;;;;;;4990001;28;21121;-77
2022/06/30 03:58:00;;;;;;;1.47;0.90;;;19.80;98.20;;;;;;4994178;28;20603;-77
2022/06/30 04:00:27;;;;;;;1.50;0.90;;;19.70;98.20;;;;;;4989859;28;20468;-76
2022/06/30 04:02:54;;;;;;;1.47;0.90;;;19.60;98.20;;;;;;5002753;28;20555;-76
2022/06/30 04:05:21;;;;;;;1.67;1.57;;;19.60;98.20;;;;;;4995387;28;20465;-77
2022/06/30 04:07:48;;;;;;;1.50;0.90;;;19.60;98.20;;;;;;4991930;28;20639;-78
2022/06/30 04:10:18;;;;;;;1.43;0.90;;;19.60;98.20;;;;;;4988831;28;20473;-77
2022/06/30 04:12:45;;;;;;;1.43;0.90;;;19.70;98.20;;;;;;4990584;28;20464;-78
2022/06/30 04:15:12;;;;;;;1.47;0.90;;;19.70;98.20;;;;;;5006762;28;20547;-79
2022/06/30 04:17:39;;;;;;;1.50;0.90;;;19.60;98.20;;;;;;5011563;28;20491;-77
2022/06/30 04:20:15;;;;;;;1.50;1.00;;;19.60;98.20;;;;;;5004695;28;20464;-78
2022/06/30 04:22:43;;;;;;;1.50;0.90;;;19.60;98.20;;;;;;5006683;28;21006;-77
2022/06/30 04:25:10;;;;;;;1.50;1.10;;;19.60;98.20;;;;;;4998358;28;20472;-78
2022/06/30 04:27:42;;;;;;;1.60;1.03;;;19.60;98.20;;;;;;4992105;28;20477;-78
2022/06/30 04:30:10;;;;;;;1.97;1.83;;;19.60;98.20;;;;;;5005325;28;20464;-78
2022/06/30 04:32:38;;;;;;;1.50;1.00;;;19.70;98.20;;;;;;4998793;28;20491;-78
2022/06/30 04:35:07;;;;;;;1.47;0.90;;;19.70;98.20;;;;;;4995267;28;20871;-78
2022/06/30 04:37:34;;;;;;;1.47;0.90;;;19.80;98.20;;;;;;5002542;28;20555;-78
2022/06/30 04:42:46;;;;;;;1.50;0.90;;;20.00;98.20;;;;;;4997496;28;20562;-78
2022/06/30 04:45:13;;;;;;;1.50;1.00;;;20.10;98.20;;;;;;5008039;28;20472;-78
2022/06/30 04:47:41;;;;;;;1.50;1.00;;;20.30;98.20;;;;;;4996591;28;20510;-78
2022/06/30 04:50:09;;;;;;;1.47;0.90;;;20.50;98.20;;;;;;5000740;28;20488;-78
2022/06/30 04:52:36;;;;;;;1.47;0.97;;;20.70;98.20;;;;;;4995357;28;20542;-78
2022/06/30 04:55:04;;;;;;;1.50;0.90;;;20.90;98.20;;;;;;5001892;28;20582;-78
2022/06/30 04:57:31;;;;;;;1.43;0.90;;;21.10;98.20;;;;;;5007127;28;20463;-79
2022/06/30 04:59:59;;;;;;;1.50;1.10;;;21.30;98.20;;;;;;4994749;28;20552;-79
2022/06/30 05:02:26;;;;;;;1.47;0.90;;;21.40;98.20;;;;;;5000660;28;20488;-76
2022/06/30 05:04:53;;;;;;;1.47;0.90;;;21.60;98.20;;;;;;4997011;28;20491;-78
2022/06/30 05:07:21;;;;;;;1.50;0.90;;;21.70;98.20;;;;;;4998079;28;20468;-78
2022/06/30 05:09:48;;;;;;;1.47;0.90;;;21.80;98.20;;;;;;4999301;28;20539;-78
2022/06/30 05:12:15;;;;;;;1.50;0.90;;;21.80;98.20;;;;;;5001376;28;20484;-78
2022/06/30 05:14:41;;;;;;;1.50;0.90;;;22.00;98.20;;;;;;4993102;28;20973;-77
2022/06/30 05:17:11;;;;;;;1.50;0.90;;;22.20;98.20;;;;;;4984282;28;20924;-78
2022/06/30 05:19:38;;;;;;;1.50;0.90;;;22.30;98.20;;;;;;5005307;28;20515;-78
2022/06/30 05:22:06;;;;;;;1.50;0.90;;;22.40;98.20;;;;;;5005282;28;20475;-78
2022/06/30 05:27:18;;;;;;;1.50;0.90;;;23.00;98.20;;;;;;4989233;28;20506;-77
2022/06/30 05:29:44;;;;;;;1.50;0.90;;;23.20;98.20;;;;;;5009612;28;21019;-77
2022/06/30 05:32:13;;;;;;;1.50;0.90;;;23.50;98.20;;;;;;4998891;28;20507;-77
2022/06/30 05:34:39;;;;;;;1.50;0.90;;;23.70;98.00;;;;;;4995999;28;20548;-77
2022/06/30 05:37:07;;;;;;;1.50;1.00;;;24.00;97.20;;;;;;5000557;28;20484;-77
2022/06/30 05:39:34;;;;;;;1.50;0.90;;;24.20;96.90;;;;;;4989841;28;20505;-77
2022/06/30 05:42:01;;;;;;;1.50;0.90;;;24.40;95.80;;;;;;4985156;28;20516;-77
2022/06/30 05:44:28;;;;;;;1.47;0.90;;;24.70;94.90;;;;;;4989634;28;20473;-77
2022/06/30 05:46:55;;;;;;;1.50;0.90;;;24.90;94.70;;;;;;4983380;28;20659;-78
2022/06/30 05:49:24;;;;;;;1.50;0.90;;;25.10;93.70;;;;;;4990844;28;20489;-77
2022/06/30 05:51:51;;;;;;;1.50;0.90;;;25.20;93.20;;;;;;4987422;28;20501;-77
2022/06/30 05:54:18;;;;;;;1.50;0.80;;;25.40;92.80;;;;;;5007510;28;20491;-77
2022/06/30 05:56:45;;;;;;;1.90;1.70;;;25.40;92.40;;;;;;5007456;28;20525;-77
2022/06/30 05:59:12;;;;;;;1.50;0.90;;;25.60;91.00;;;;;;5003819;28;20898;-78
2022/06/30 06:01:38;;;;;;;1.50;0.90;;;25.70;91.10;;;;;;4989724;28;20472;-77
2022/06/30 06:04:05;;;;;;;1.47;0.90;;;25.80;91.00;;;;;;5006542;28;20465;-77
2022/06/30 06:06:33;;;;;;;1.50;0.90;;;25.80;91.10;;;;;;5005247;28;20921;-77
2022/06/30 06:09:00;;;;;;;1.47;0.93;;;25.90;90.90;;;;;;5013046;28;20499;-77
2022/06/30 06:11:27;;;;;;;1.50;0.90;;;26.00;90.20;;;;;;5001767;28;20466;-77
2022/06/30 06:13:54;;;;;;;1.50;1.00;;;26.10;89.90;;;;;;5009923;28;20547;-77
2022/06/30 06:16:21;;;;;;;1.47;0.87;;;26.30;89.50;;;;;;4997680;28;20482;-76
2022/06/30 06:18:48;;;;;;;1.60;1.30;;;26.50;89.30;;;;;;5000801;28;20496;-77
2022/06/30 06:21:15;;;;;;;1.50;0.80;;;26.70;88.20;;;;;;4990642;28;20465;-78
2022/06/30 06:23:43;;;;;;;1.50;0.80;;;26.80;87.70;;;;;;5000167;28;20475;-77
2022/06/30 06:26:11;;;;;;;1.50;0.90;;;26.90;87.60;;;;;;4999837;28;21112;-77
2022/06/30 06:31:22;;;;;;;1.50;0.87;;;27.30;86.30;;;;;;4998885;28;20475;-77
2022/06/30 06:33:49;;;;;;;1.50;0.80;;;27.60;85.20;;;;;;4996388;28;20476;-77
2022/06/30 06:36:16;;;;;;;1.50;0.90;;;27.70;84.60;;;;;;4982294;28;20479;-77
2022/06/30 06:38:44;;;;;;;1.50;0.90;;;27.80;84.30;;;;;;5007817;28;20550;-76
2022/06/30 06:41:11;;;;;;;1.50;0.90;;;28.00;83.60;;;;;;5005509;28;20464;-77
2022/06/30 06:43:38;;;;;;;1.47;0.90;;;28.20;83.70;;;;;;4999256;28;21216;-77
2022/06/30 06:46:05;;;;;;;1.50;1.10;;;28.10;82.60;;;;;;4989705;28;20459;-77
2022/06/30 06:48:32;;;;;;;1.50;0.80;;;28.20;83.40;;;;;;4995263;28;20484;-77
2022/06/30 06:50:59;;;;;;;1.50;0.80;;;28.30;83.10;;;;;;4979563;28;20464;-78
2022/06/30 06:53:26;;;;;;;1.50;0.87;;;28.50;83.10;;;;;;5013860;28;20468;-77
2022/06/30 06:55:54;;;;;;;1.50;0.90;;;28.60;83.00;;;;;;5000899;28;20463;-77
2022/06/30 06:58:21;;;;;;;1.60;1.10;;;28.80;83.30;;;;;;4992369;28;20833;-77
2022/06/30 07:00:47;;;;;;;1.47;0.80;;;29.10;82.10;;;;;;5004043;28;20840;-77
2022/06/30 07:03:14;;;;;;;1.50;0.80;;;29.30;81.20;;;;;;4977489;28;20546;-77
2022/06/30 07:05:41;;;;;;;1.50;0.90;;;29.60;80.40;;;;;;4999437;28;20533;-77
2022/06/30 07:08:08;;;;;;;1.50;0.80;;;29.80;79.60;;;;;;4996074;28;20492;-77
2022/06/30 07:10:35;;;;;;;1.50;0.80;;;30.00;78.90;;;;;;5005098;28;20553;-77
2022/06/30 07:13:04;;;;;;;1.50;0.90;;;30.10;78.00;;;;;;4992289;28;20578;-77
2022/06/30 07:15:30;;;;;;;1.50;0.87;;;30.20;78.00;;;;;;5007277;28;20486;-77
2022/06/30 07:17:58;;;;;;;1.50;0.80;;;30.40;77.60;;;;;;4994582;28;21081;-77
2022/06/30 07:20:25;;;;;;;1.47;0.80;;;30.40;78.20;;;;;;4983866;28;20489;-77
2022/06/30 07:22:52;;;;;;;1.70;1.40;;;30.60;77.70;;;;;;4995885;28;20521;-76
2022/06/30 07:25:19;;;;;;;1.50;0.80;;;30.70;76.50;;;;;;4996418;28;20466;-77
2022/06/30 07:27:46;;;;;;;1.50;0.80;;;30.60;76.00;;;;;;4991809;28;20555;-76
2022/06/30 07:30:15;;;;;;;1.50;0.80;;;30.60;75.60;;;;;;5007057;28;21125;-77
2022/06/30 07:32:42;;;;;;;1.50;0.80;;;30.80;76.20;;;;;;4993059;28;20489;-76
2022/06/30 07:35:10;;;;;;;1.47;0.80;;;30.90;74.40;;;;;;4987689;28;20460;-76
2022/06/30 07:37:42;;;;;;;1.40;0.80;;;31.00;74.30;;;;;;5011887;28;20508;-76
2022/06/30 07:40:11;;;;;;;1.50;0.80;;;31.10;73.40;;;;;;5008837;28;20492;-77
2022/06/30 07:42:38;;;;;;;1.50;0.80;;;31.20;73.60;;;;;;5001734;28;20478;-76
2022/06/30 07:45:06;;;;;;;1.43;0.80;;;31.30;71.90;;;;;;5002222;28;21134;-77
2022/06/30 07:47:34;;;;;;;1.50;0.80;;;31.40;71.20;;;;;;5011494;28;20494;-76
2022/06/30 07:50:01;;;;;;;1.43;0.80;;;31.50;71.60;;;;;;5003148;28;20976;-77
2022/06/30 07:52:28;;;;;;;1.47;0.80;;;31.60;70.90;;;;;;4995103;28;20473;-76
2022/06/30 07:54:55;;;;;;;1.50;0.90;;;31.70;70.00;;;;;;4996760;28;21008;-80
2022/06/30 07:57:22;;;;;;;1.47;0.80;;;31.80;70.10;;;;;;4998141;28;20459;-77
2022/06/30 07:59:49;;;;;;;1.43;0.80;;;31.90;67.30;;;;;;5006661;28;20328;-80
2022/06/30 08:02:16;;;;;;;1.50;0.83;;;32.00;68.00;;;;;;4999186;28;20231;-76
2022/06/30 08:04:44;;;;;;;1.50;0.90;;;32.10;68.10;;;;;;4988666;28;20209;-78
2022/06/30 08:07:11;;;;;;;1.43;0.80;;;32.10;64.20;;;;;;4986444;28;20783;-78
2022/06/30 08:09:38;;;;;;;1.50;0.90;;;32.20;65.80;;;;;;5002157;28;20240;-76
2022/06/30 08:12:06;;;;;;;1.50;0.80;;;32.30;63.40;;;;;;4991549;28;20308;-79
2022/06/30 08:14:33;;;;;;;1.47;0.80;;;32.40;63.70;;;;;;4989815;28;20208;-77
2022/06/30 08:17:01;;;;;;;1.43;0.80;;;32.40;66.30;;;;;;4987833;28;20587;-78
2022/06/30 08:19:28;;;;;;;1.43;0.80;;;32.60;66.90;;;;;;5010429;28;20910;-79
2022/06/30 08:21:57;;;;;;;1.47;0.87;;;32.60;67.30;;;;;;5000418;28;20243;-76
2022/06/30 08:24:24;;;;;;;1.43;0.80;;;32.70;67.10;;;;;;5007804;28;20208;-77
2022/06/30 08:26:51;;;;;;;1.50;0.80;;;32.80;66.80;;;;;;4989398;28;20243;-77
2022/06/30 08:29:18;;;;;;;1.43;0.80;;;32.80;66.30;;;;;;5010322;28;20229;-80
2022/06/30 08:31:44;;;;;;;1.50;0.80;;;32.80;66.80;;;;;;5003803;28;20205;-76
2022/06/30 08:34:11;;;;;;;1.40;0.80;;;32.80;67.70;;;;;;5012418;28;20213;-78
2022/06/30 08:36:38;;;;;;;1.47;0.80;;;32.80;68.00;;;;;;5000635;28;20885;-78
2022/06/30 08:42:02;;;;;;;1.43;0.80;;;32.80;68.60;;;;;;5002992;28;20243;-79
2022/06/30 08:42:02;;;;;;;1.43;0.80;;;32.80;67.80;;;;;;4999220;28;20328;-78
2022/06/30 08:44:32;;;;;;;1.40;0.80;;;32.90;67.80;;;;;;5000579;28;20247;-78
2022/06/30 08:46:59;;;;;;;1.40;0.80;;;33.00;67.20;;;;;;4992188;28;20208;-78
2022/06/30 08:49:26;;;;;;;1.40;0.80;;;33.10;66.70;;;;;;5000402;28;20225;-77
2022/06/30 08:51:56;;;;;;;1.43;0.80;;;33.10;67.40;;;;;;4997604;28;20224;-79
2022/06/30 08:54:27;;;;;;;1.50;0.80;;;33.20;66.50;;;;;;4995740;28;20630;-79
2022/06/30 08:56:55;;;;;;;1.43;0.80;;;33.30;66.30;;;;;;4997942;28;20282;-80
2022/06/30 08:59:23;;;;;;;1.47;0.80;;;33.40;66.90;;;;;;5006311;28;20239;-79
2022/06/30 09:01:50;;;;;;;1.47;0.80;;;33.40;65.70;;;;;;4993523;28;20297;-77
2022/06/30 09:04:16;;;;;;;1.40;0.80;;;33.30;66.80;;;;;;4993888;28;20325;-78
2022/06/30 09:06:44;;;;;;;1.43;0.80;;;33.30;67.00;;;;;;4988015;28;20210;-77
2022/06/30 09:09:12;;;;;;;1.43;0.80;;;33.50;67.80;;;;;;4998967;28;20296;-79
2022/06/30 09:11:48;;;;;;;1.47;0.80;;;33.60;65.90;;;;;;4977985;28;20262;-77
2022/06/30 09:14:38;;;;;;;1.47;0.80;;;33.80;64.10;;;;;;5012752;28;20287;-78
2022/06/30 09:17:07;;;;;;;1.50;1.00;;;33.90;65.70;;;;;;5012318;28;20224;-77
2022/06/30 09:19:37;;;;;;;1.45;0.80;;;33.70;66.10;;;;;;5000999;28;20230;-77
2022/06/30 09:22:07;;;;;;;1.45;0.80;;;33.80;66.20;;;;;;4990770;28;20260;-77
2022/06/30 09:24:34;;;;;;;1.48;0.88;;;33.90;65.60;;;;;;5001822;28;20248;-78
2022/06/30 09:27:19;;;;;;;1.42;0.80;;;34.00;63.90;;;;;;5001658;28;20612;-77
2022/06/30 09:29:59;;;;;;;1.48;0.80;;;34.10;65.10;;;;;;5007981;28;20252;-76
2022/06/30 09:32:26;;;;;;;1.48;0.80;;;34.20;64.10;;;;;;5013007;28;20231;-77
2022/06/30 09:34:54;;;;;;;1.45;0.80;;;34.40;63.50;;;;;;5010882;28;20235;-78
2022/06/30 09:37:22;;;;;;;1.42;0.88;;;34.50;64.60;;;;;;5006338;28;20621;-77
2022/06/30 09:39:51;;;;;;;1.75;1.13;;;34.30;63.20;;;;;;5008429;28;20237;-77
2022/06/30 09:42:42;;;;;;;1.42;0.80;;;34.30;62.10;;;;;;5001095;28;20244;-78
2022/06/30 09:45:11;;;;;;;1.42;0.80;;;34.40;63.40;;;;;;4987829;28;20245;-78
2022/06/30 09:47:50;;;;;;;1.40;0.80;;;34.50;61.60;;;;;;4994343;28;20255;-80
2022/06/30 09:50:17;;;;;;;1.42;0.80;;;34.60;62.90;;;;;;4999558;28;20764;-77
2022/06/30 09:52:44;;;;;;;1.40;0.80;;;34.60;62.70;;;;;;4999876;28;20319;-78
2022/06/30 09:55:12;;;;;;;1.40;0.80;;;34.70;62.70;;;;;;4995335;28;20244;-75
2022/06/30 09:57:42;;;;;;;1.50;1.00;;;34.90;61.60;;;;;;5002268;28;20256;-78
2022/06/30 10:00:11;;;;;;;1.50;1.00;;;34.90;59.80;;;;;;4987065;28;20201;-77
2022/06/30 10:02:41;;;;;;;1.45;0.80;;;34.80;62.40;;;;;;4999924;28;20708;-76
2022/06/30 10:05:09;;;;;;;1.45;0.80;;;34.70;61.70;;;;;;5003504;28;20256;-76
2022/06/30 10:07:38;;;;;;;1.40;0.80;;;34.70;63.90;;;;;;4995336;28;20209;-78
2022/06/30 10:10:07;;;;;;;1.48;0.80;;;34.70;62.20;;;;;;5003485;28;20779;-77
2022/06/30 10:12:35;;;;;;;1.40;0.80;;;34.60;62.10;;;;;;5006277;28;20267;-77
2022/06/30 10:15:06;;;;;;;1.42;0.90;;;34.70;62.20;;;;;;5010127;28;20281;-77
2022/06/30 10:17:36;;;;;;;1.45;0.80;;;34.70;62.60;;;;;;5001895;28;20700;-75
2022/06/30 10:20:04;;;;;;;1.40;0.80;;;34.80;61.60;;;;;;4999437;28;20208;-77
2022/06/30 10:22:31;;;;;;;1.40;0.80;;;34.80;61.90;;;;;;5000268;28;20204;-76
2022/06/30 10:24:59;;;;;;;1.40;0.80;;;34.70;61.90;;;;;;4997029;28;20213;-76
2022/06/30 10:27:28;;;;;;;1.40;0.80;;;34.70;62.30;;;;;;5002447;28;20238;-78
2022/06/30 10:29:57;;;;;;;1.40;0.88;;;34.80;61.90;;;;;;5008368;28;20229;-77
2022/06/30 10:32:44;;;;;;;1.42;0.80;;;34.80;62.60;;;;;;5005189;28;20239;-78
2022/06/30 10:35:21;;;;;;;1.50;1.00;;;34.80;61.20;;;;;;5005301;28;20208;-77
2022/06/30 10:37:52;;;;;;;1.40;0.80;;;34.90;62.60;;;;;;5000800;28;20292;-78
2022/06/30 10:40:36;;;;;;;1.40;0.80;;;34.80;61.90;;;;;;5009758;28;20209;-77
2022/06/30 10:43:03;;;;;;;1.40;0.80;;;34.80;62.40;;;;;;4995200;28;20610;-77
2022/06/30 10:45:53;;;;;;;1.40;0.80;;;34.60;62.50;;;;;;5007350;28;20201;-76
2022/06/30 10:48:22;;;;;;;1.40;0.80;;;34.60;62.10;;;;;;4991664;28;20235;-77
2022/06/30 10:50:51;;;;;;;1.40;0.80;;;34.80;62.00;;;;;;5002876;28;20587;-78
2022/06/30 10:53:37;;;;;;;1.40;0.80;;;34.90;62.50;;;;;;5001419;28;20618;-76
2022/06/30 10:56:05;;;;;;;1.40;0.80;;;35.00;61.70;;;;;;4982389;28;20447;-78
2022/06/30 10:58:32;;;;;;;1.40;0.80;;;35.00;60.80;;;;;;5002445;28;20225;-77
2022/06/30 11:01:01;;;;;;;1.40;0.80;;;35.00;61.60;;;;;;4994943;28;20295;-77
2022/06/30 11:04:00;;;;;;;1.40;0.80;;;35.30;61.50;;;;;;5007713;28;20509;-78
2022/06/30 11:06:56;;;;;;;1.40;0.80;;;35.40;60.00;;;;;;4994531;28;20631;-76
2022/06/30 11:10:06;;;;;;;1.40;0.80;;;35.40;59.90;;;;;;4995966;28;20360;-78
2022/06/30 11:13:00;;;;;;;1.40;0.80;;;35.30;61.00;;;;;;4992050;28;20236;-77
2022/06/30 11:15:58;;;;;;;1.40;0.80;;;35.30;61.20;;;;;;4994247;28;20211;-77
2022/06/30 11:18:27;;;;;;;1.40;0.80;;;35.30;60.00;;;;;;4969043;28;20600;-78
2022/06/30 11:20:56;;;;;;;1.40;0.80;;;35.30;60.00;;;;;;4993861;28;20297;-76
2022/06/30 11:23:24;;;;;;;1.40;0.80;;;35.20;60.60;;;;;;4998356;28;20216;-76
2022/06/30 11:28:41;;;;;;;1.40;0.80;;;35.10;61.10;;;;;;5003228;28;20726;-77
2022/06/30 11:31:31;;;;;;;1.45;0.90;;;34.80;61.50;;;;;;4984024;28;20248;-77
2022/06/30 11:34:01;;;;;;;1.40;0.80;;;34.60;61.60;;;;;;5006252;28;20205;-77
2022/06/30 11:36:30;;;;;;;1.40;0.80;;;34.50;61.30;;;;;;4987268;28;20894;-76
2022/06/30 11:38:58;;;;;;;1.40;0.80;;;34.50;62.30;;;;;;5001934;28;20221;-79
2022/06/30 11:44:12;;;;;;;1.40;0.80;;;34.00;62.40;;;;;;4982192;28;20248;-78
2022/06/30 11:47:04;;;;;;;1.40;0.80;;;33.60;62.70;;;;;;4985132;28;20611;-78
2022/06/30 11:49:40;;;;;;;1.43;0.80;;;33.50;63.10;;;;;;4982271;28;20221;-78
2022/06/30 11:52:15;;;;;;;1.40;0.80;;;33.40;63.80;;;;;;4990522;28;20595;-77
2022/06/30 11:54:44;;;;;;;1.40;0.80;;;33.60;64.50;;;;;;4982466;28;20220;-77
2022/06/30 11:57:11;;;;;;;1.40;0.80;;;33.70;64.00;;;;;;4981313;28;20232;-76
2022/06/30 11:59:44;;;;;;;1.40;0.80;;;33.70;63.30;;;;;;5006280;28;20229;-76
2022/06/30 12:02:11;;;;;;;1.70;1.00;;;33.80;62.60;;;;;;5005515;28;20246;-77
2022/06/30 12:04:41;;;;;;;1.40;0.80;;;33.80;63.00;;;;;;5003487;28;20244;-78
2022/06/30 12:07:09;;;;;;;1.40;0.80;;;33.90;63.30;;;;;;5000079;28;20215;-75
2022/06/30 12:09:37;;;;;;;1.40;0.80;;;34.10;63.10;;;;;;4994387;28;20240;-78
2022/06/30 12:12:05;;;;;;;1.40;0.80;;;34.20;63.30;;;;;;5000179;28;20775;-76
2022/06/30 12:14:34;;;;;;;1.40;0.80;;;34.30;63.10;;;;;;4990306;28;20297;-79
2022/06/30 12:17:00;;;;;;;1.43;0.80;;;34.60;64.20;;;;;;4990907;28;20316;-78
2022/06/30 12:19:27;;;;;;;1.40;0.80;;;34.90;62.80;;;;;;5001104;28;20231;-78
2022/06/30 12:21:55;;;;;;;1.43;0.80;;;35.00;62.60;;;;;;4995426;28;20232;-76
2022/06/30 12:24:23;;;;;;;1.40;0.88;;;34.90;62.10;;;;;;4993956;28;20715;-78
2022/06/30 12:26:52;;;;;;;1.40;0.80;;;34.80;62.50;;;;;;4983574;28;20248;-78
2022/06/30 12:29:20;;;;;;;1.40;0.80;;;34.60;62.90;;;;;;5003902;28;20232;-78
2022/06/30 12:31:58;;;;;;;1.40;0.80;;;34.50;62.30;;;;;;4999607;28;20232;-78
2022/06/30 12:34:25;;;;;;;1.40;0.80;;;34.60;62.50;;;;;;4996568;28;20212;-80
2022/06/30 12:36:56;;;;;;;1.40;0.80;;;34.70;61.70;;;;;;5002350;28;20327;-78
2022/06/30 12:39:23;;;;;;;1.40;0.80;;;34.60;63.40;;;;;;5006672;28;20255;-79
2022/06/30 12:42:01;;;;;;;1.40;0.80;;;34.80;61.90;;;;;;4988516;28;20315;-76
2022/06/30 12:44:40;;;;;;;1.40;0.80;;;34.80;61.60;;;;;;4997875;28;20292;-76
2022/06/30 12:47:08;;;;;;;1.40;0.90;;;34.90;60.90;;;;;;4992426;28;20271;-77
2022/06/30 12:49:36;;;;;;;1.40;0.80;;;35.00;59.60;;;;;;4999705;28;20322;-77
2022/06/30 12:52:13;;;;;;;1.40;0.80;;;34.90;60.00;;;;;;5001196;28;20747;-78
2022/06/30 12:54:50;;;;;;;1.40;0.98;;;34.90;60.50;;;;;;5003364;28;20284;-76
2022/06/30 12:57:18;;;;;;;1.40;0.80;;;35.00;59.20;;;;;;5001037;28;20713;-77
2022/06/30 12:59:48;;;;;;;1.42;0.88;;;35.20;60.30;;;;;;5012684;28;20232;-76
2022/06/30 13:02:16;;;;;;;1.40;0.80;;;35.30;59.20;;;;;;5005231;28;20205;-77
2022/06/30 13:04:49;;;;;;;1.40;0.80;;;35.30;60.10;;;;;;5009495;28;20263;-75
2022/06/30 13:07:16;;;;;;;1.60;1.13;;;35.20;59.70;;;;;;4992985;28;20626;-76
2022/06/30 13:09:46;;;;;;;1.40;0.80;;;35.30;59.70;;;;;;4997072;28;20336;-77
2022/06/30 13:12:13;;;;;;;1.40;0.80;;;35.30;60.30;;;;;;4991482;28;20228;-75
2022/06/30 13:14:41;;;;;;;1.40;0.80;;;35.40;60.30;;;;;;4993655;28;20255;-76
2022/06/30 13:17:09;;;;;;;1.40;0.80;;;35.50;58.90;;;;;;4995165;28;20235;-76
2022/06/30 13:19:36;;;;;;;1.40;0.90;;;35.50;59.00;;;;;;5005064;28;20221;-77